TimeCDT,TemperatureF,Dew PointF,Humidity,Sea Level PressureIn,VisibilityMPH,Wind Direction,Wind SpeedMPH,Gust SpeedMPH,PrecipitationIn,Events,Conditions,WindDirDegrees,DateUTC
12:40 AM,44.6,44.6,100,30.10,1.8,South,3.5,-,N/A,,Clear,170,2011-10-24 05:40:00
12:47 AM,44.6,44.6,100,30.10,3.0,South,3.5,-,N/A,,Clear,180,2011-10-24 05:47:00
12:52 AM,44.1,44.1,100,30.10,5.0,South,3.5,-,N/A,,Clear,180,2011-10-24 05:52:00
1:52 AM,48.0,46.0,93,30.10,10.0,Calm,Calm,-,N/A,,Clear,0,2011-10-24 06:52:00
2:52 AM,44.1,42.1,93,30.09,1.0,Calm,Calm,-,N/A,,Clear,0,2011-10-24 07:52:00
3:06 AM,44.6,44.6,100,30.10,3.0,Calm,Calm,-,N/A,,Clear,0,2011-10-24 08:06:00
3:52 AM,45.0,44.1,97,30.10,-9999.0,West,3.5,-,N/A,,Clear,270,2011-10-24 08:52:00
4:52 AM,46.9,45.0,93,30.12,8.0,SW,6.9,-,N/A,,Clear,230,2011-10-24 09:52:00
5:52 AM,46.9,45.0,93,30.12,-9999.0,SW,4.6,-,N/A,,Clear,220,2011-10-24 10:52:00
6:52 AM,46.0,45.0,96,30.14,6.0,SW,4.6,-,N/A,,Clear,230,2011-10-24 11:52:00
7:52 AM,46.9,46.0,97,30.14,-9999.0,SSW,4.6,-,N/A,,Clear,200,2011-10-24 12:52:00
8:52 AM,52.0,48.0,86,30.19,10.0,WNW,8.1,-,N/A,,Clear,290,2011-10-24 13:52:00
10:52 AM,64.0,48.9,58,30.16,10.0,SSW,8.1,-,N/A,,Clear,210,2011-10-24 15:52:00
11:52 AM,68.0,48.9,50,30.16,10.0,West,10.4,-,N/A,,Clear,260,2011-10-24 16:52:00
12:52 PM,71.1,51.1,49,30.14,10.0,West,11.5,18.4,N/A,,Clear,260,2011-10-24 17:52:00
2:52 PM,72.0,48.0,43,30.13,10.0,NW,12.7,18.4,N/A,,Clear,310,2011-10-24 19:52:00
3:52 PM,72.0,46.0,40,30.14,10.0,NNW,8.1,-,N/A,,Clear,330,2011-10-24 20:52:00
4:52 PM,72.0,45.0,38,30.14,10.0,NW,8.1,-,N/A,,Clear,320,2011-10-24 21:52:00
5:52 PM,69.1,45.0,42,30.16,10.0,NNW,5.8,-,N/A,,Clear,330,2011-10-24 22:52:00
6:52 PM,62.1,43.0,50,30.17,10.0,Calm,Calm,-,N/A,,Clear,0,2011-10-24 23:52:00
7:52 PM,55.0,46.0,72,30.19,10.0,Calm,Calm,-,N/A,,Clear,0,2011-10-25 00:52:00
9:52 PM,50.0,46.0,86,30.22,10.0,Calm,Calm,-,N/A,,Clear,0,2011-10-25 02:52:00
10:52 PM,48.0,46.0,93,30.22,10.0,Calm,Calm,-,N/A,,Clear,0,2011-10-25 03:52:00
11:52 PM,46.9,46.0,97,30.21,9.0,Calm,Calm,-,N/A,,Clear,0,2011-10-25 04:52:00